sensor_id;sensor_type;location;lat;lon;timestamp;temperature;humidity
43524;DHT22;29120;52.006;6.020;2023-04-19T00:00:16;11.00;89.90
43524;DHT22;29120;52.006;6.020;2023-04-19T00:02:42;11.00;90.00
43524;DHT22;29120;52.006;6.020;2023-04-19T00:05:07;11.00;90.00
43524;DHT22;29120;52.006;6.020;2023-04-19T00:07:33;11.00;90.10
43524;DHT22;29120;52.006;6.020;2023-04-19T00:09:58;11.00;90.20
43524;DHT22;29120;52.006;6.020;2023-04-19T00:12:24;10.90;90.30
43524;DHT22;29120;52.006;6.020;2023-04-19T00:14:49;10.90;90.40
43524;DHT22;29120;52.006;6.020;2023-04-19T00:17:15;10.80;90.50
43524;DHT22;29120;52.006;6.020;2023-04-19T00:19:40;10.80;90.60
43524;DHT22;29120;52.006;6.020;2023-04-19T00:22:06;10.80;90.70
43524;DHT22;29120;52.006;6.020;2023-04-19T00:24:31;10.70;90.80
43524;DHT22;29120;52.006;6.020;2023-04-19T00:26:57;10.80;90.90
43524;DHT22;29120;52.006;6.020;2023-04-19T00:29:23;10.70;90.90
43524;DHT22;29120;52.006;6.020;2023-04-19T00:31:48;10.70;91.00
43524;DHT22;29120;52.006;6.020;2023-04-19T00:34:14;10.70;91.10
43524;DHT22;29120;52.006;6.020;2023-04-19T00:36:40;10.70;91.10
43524;DHT22;29120;52.006;6.020;2023-04-19T00:39:05;10.60;91.20
43524;DHT22;29120;52.006;6.020;2023-04-19T00:41:31;10.60;91.30
43524;DHT22;29120;52.006;6.020;2023-04-19T00:43:56;10.60;91.40
43524;DHT22;29120;52.006;6.020;2023-04-19T00:46:22;10.60;91.40
43524;DHT22;29120;52.006;6.020;2023-04-19T00:48:48;10.60;91.60
43524;DHT22;29120;52.006;6.020;2023-04-19T00:51:14;10.60;91.50
43524;DHT22;29120;52.006;6.020;2023-04-19T00:53:39;10.60;91.60
43524;DHT22;29120;52.006;6.020;2023-04-19T00:56:05;10.60;91.60
43524;DHT22;29120;52.006;6.020;2023-04-19T00:58:31;10.50;91.70
43524;DHT22;29120;52.006;6.020;2023-04-19T01:00:56;10.60;91.80
43524;DHT22;29120;52.006;6.020;2023-04-19T01:03:22;10.50;91.80
43524;DHT22;29120;52.006;6.020;2023-04-19T01:05:48;10.50;91.80
43524;DHT22;29120;52.006;6.020;2023-04-19T01:08:13;10.50;91.90
43524;DHT22;29120;52.006;6.020;2023-04-19T01:10:39;10.50;92.00
43524;DHT22;29120;52.006;6.020;2023-04-19T01:13:04;10.50;92.00
43524;DHT22;29120;52.006;6.020;2023-04-19T01:15:30;10.50;92.00
43524;DHT22;29120;52.006;6.020;2023-04-19T01:17:56;10.50;92.10
43524;DHT22;29120;52.006;6.020;2023-04-19T01:20:22;10.60;92.20
43524;DHT22;29120;52.006;6.020;2023-04-19T01:22:47;10.40;92.20
43524;DHT22;29120;52.006;6.020;2023-04-19T01:25:13;10.40;92.20
43524;DHT22;29120;52.006;6.020;2023-04-19T01:27:38;10.40;92.40
43524;DHT22;29120;52.006;6.020;2023-04-19T01:30:04;10.30;92.40
43524;DHT22;29120;52.006;6.020;2023-04-19T01:32:30;10.20;92.50
43524;DHT22;29120;52.006;6.020;2023-04-19T01:34:55;10.20;92.60
43524;DHT22;29120;52.006;6.020;2023-04-19T01:37:21;10.20;92.70
43524;DHT22;29120;52.006;6.020;2023-04-19T01:39:46;10.10;92.70
43524;DHT22;29120;52.006;6.020;2023-04-19T01:42:12;10.10;92.80
43524;DHT22;29120;52.006;6.020;2023-04-19T01:44:37;10.10;92.80
43524;DHT22;29120;52.006;6.020;2023-04-19T01:47:03;10.10;92.90
43524;DHT22;29120;52.006;6.020;2023-04-19T01:49:29;10.00;93.10
43524;DHT22;29120;52.006;6.020;2023-04-19T01:51:54;10.00;93.10
43524;DHT22;29120;52.006;6.020;2023-04-19T01:54:19;10.00;93.10
43524;DHT22;29120;52.006;6.020;2023-04-19T01:56:45;10.00;93.20
43524;DHT22;29120;52.006;6.020;2023-04-19T01:59:10;10.00;93.30
43524;DHT22;29120;52.006;6.020;2023-04-19T02:01:36;9.90;93.30
43524;DHT22;29120;52.006;6.020;2023-04-19T02:04:02;9.90;93.40
43524;DHT22;29120;52.006;6.020;2023-04-19T02:06:28;9.90;93.40
43524;DHT22;29120;52.006;6.020;2023-04-19T02:08:53;9.90;93.50
43524;DHT22;29120;52.006;6.020;2023-04-19T02:11:19;9.90;93.50
43524;DHT22;29120;52.006;6.020;2023-04-19T02:13:44;9.90;93.50
43524;DHT22;29120;52.006;6.020;2023-04-19T02:16:10;10.00;93.50
43524;DHT22;29120;52.006;6.020;2023-04-19T02:18:35;10.00;93.50
43524;DHT22;29120;52.006;6.020;2023-04-19T02:21:03;10.10;93.50
43524;DHT22;29120;52.006;6.020;2023-04-19T02:23:29;10.20;93.50
43524;DHT22;29120;52.006;6.020;2023-04-19T02:25:54;10.10;93.40
43524;DHT22;29120;52.006;6.020;2023-04-19T02:28:20;10.20;93.40
43524;DHT22;29120;52.006;6.020;2023-04-19T02:30:45;10.20;93.40
43524;DHT22;29120;52.006;6.020;2023-04-19T02:33:11;10.20;93.40
43524;DHT22;29120;52.006;6.020;2023-04-19T02:35:36;10.20;93.40
43524;DHT22;29120;52.006;6.020;2023-04-19T02:38:02;10.20;93.40
43524;DHT22;29120;52.006;6.020;2023-04-19T02:40:28;10.20;93.40
43524;DHT22;29120;52.006;6.020;2023-04-19T02:42:53;10.30;93.40
43524;DHT22;29120;52.006;6.020;2023-04-19T02:45:19;10.20;93.40
43524;DHT22;29120;52.006;6.020;2023-04-19T02:47:45;10.20;93.40
43524;DHT22;29120;52.006;6.020;2023-04-19T02:50:11;10.20;93.40
43524;DHT22;29120;52.006;6.020;2023-04-19T02:52:36;10.20;93.40
43524;DHT22;29120;52.006;6.020;2023-04-19T02:55:02;10.20;93.40
43524;DHT22;29120;52.006;6.020;2023-04-19T02:57:28;10.30;93.40
43524;DHT22;29120;52.006;6.020;2023-04-19T02:59:54;10.30;93.40
43524;DHT22;29120;52.006;6.020;2023-04-19T03:02:20;10.30;93.30
43524;DHT22;29120;52.006;6.020;2023-04-19T03:04:45;10.40;93.30
43524;DHT22;29120;52.006;6.020;2023-04-19T03:07:11;10.40;93.30
43524;DHT22;29120;52.006;6.020;2023-04-19T03:09:37;10.40;93.30
43524;DHT22;29120;52.006;6.020;2023-04-19T03:12:03;10.40;93.30
43524;DHT22;29120;52.006;6.020;2023-04-19T03:14:28;10.40;93.30
43524;DHT22;29120;52.006;6.020;2023-04-19T03:16:54;10.40;93.30
43524;DHT22;29120;52.006;6.020;2023-04-19T03:19:19;10.40;93.30
43524;DHT22;29120;52.006;6.020;2023-04-19T03:21:45;10.40;93.20
43524;DHT22;29120;52.006;6.020;2023-04-19T03:24:11;10.40;93.20
43524;DHT22;29120;52.006;6.020;2023-04-19T03:26:36;10.40;93.20
43524;DHT22;29120;52.006;6.020;2023-04-19T03:29:02;10.40;93.20
43524;DHT22;29120;52.006;6.020;2023-04-19T03:31:27;10.40;93.10
43524;DHT22;29120;52.006;6.020;2023-04-19T03:33:53;10.40;93.00
43524;DHT22;29120;52.006;6.020;2023-04-19T03:36:18;10.40;93.00
43524;DHT22;29120;52.006;6.020;2023-04-19T03:38:44;10.40;93.00
43524;DHT22;29120;52.006;6.020;2023-04-19T03:41:19;10.30;92.90
43524;DHT22;29120;52.006;6.020;2023-04-19T03:43:45;10.30;92.90
43524;DHT22;29120;52.006;6.020;2023-04-19T03:46:10;10.30;92.90
43524;DHT22;29120;52.006;6.020;2023-04-19T03:48:36;10.30;92.80
43524;DHT22;29120;52.006;6.020;2023-04-19T03:51:01;10.30;92.80
43524;DHT22;29120;52.006;6.020;2023-04-19T03:53:26;10.20;92.70
43524;DHT22;29120;52.006;6.020;2023-04-19T03:55:52;10.20;92.70
43524;DHT22;29120;52.006;6.020;2023-04-19T03:58:17;10.10;92.70
43524;DHT22;29120;52.006;6.020;2023-04-19T04:00:43;10.00;92.60
43524;DHT22;29120;52.006;6.020;2023-04-19T04:03:08;10.10;92.70
43524;DHT22;29120;52.006;6.020;2023-04-19T04:05:34;9.90;92.70
43524;DHT22;29120;52.006;6.020;2023-04-19T04:07:59;9.90;92.60
43524;DHT22;29120;52.006;6.020;2023-04-19T04:10:25;9.80;92.70
43524;DHT22;29120;52.006;6.020;2023-04-19T04:12:50;9.80;92.70
43524;DHT22;29120;52.006;6.020;2023-04-19T04:15:16;9.70;92.60
43524;DHT22;29120;52.006;6.020;2023-04-19T04:17:41;9.70;92.60
43524;DHT22;29120;52.006;6.020;2023-04-19T04:20:07;9.60;92.50
43524;DHT22;29120;52.006;6.020;2023-04-19T04:22:33;9.60;92.60
43524;DHT22;29120;52.006;6.020;2023-04-19T04:24:58;9.50;92.60
43524;DHT22;29120;52.006;6.020;2023-04-19T04:27:25;9.50;92.60
43524;DHT22;29120;52.006;6.020;2023-04-19T04:29:50;9.40;92.60
43524;DHT22;29120;52.006;6.020;2023-04-19T04:32:16;9.40;92.60
43524;DHT22;29120;52.006;6.020;2023-04-19T04:34:47;9.40;92.60
43524;DHT22;29120;52.006;6.020;2023-04-19T04:37:12;9.30;92.60
43524;DHT22;29120;52.006;6.020;2023-04-19T04:39:38;9.30;92.60
43524;DHT22;29120;52.006;6.020;2023-04-19T04:42:04;9.30;92.60
43524;DHT22;29120;52.006;6.020;2023-04-19T04:44:33;9.30;92.50
43524;DHT22;29120;52.006;6.020;2023-04-19T04:46:59;9.30;92.50
43524;DHT22;29120;52.006;6.020;2023-04-19T04:49:25;9.20;92.50
43524;DHT22;29120;52.006;6.020;2023-04-19T04:51:50;9.20;92.50
43524;DHT22;29120;52.006;6.020;2023-04-19T04:54:16;9.20;92.50
43524;DHT22;29120;52.006;6.020;2023-04-19T04:56:41;9.20;92.70
43524;DHT22;29120;52.006;6.020;2023-04-19T04:59:07;9.10;93.10
43524;DHT22;29120;52.006;6.020;2023-04-19T05:01:32;9.10;92.80
43524;DHT22;29120;52.006;6.020;2023-04-19T05:03:58;9.00;92.90
43524;DHT22;29120;52.006;6.020;2023-04-19T05:06:23;9.00;92.90
43524;DHT22;29120;52.006;6.020;2023-04-19T05:08:49;9.00;92.90
43524;DHT22;29120;52.006;6.020;2023-04-19T05:11:14;9.00;92.90
43524;DHT22;29120;52.006;6.020;2023-04-19T05:13:40;8.90;92.80
43524;DHT22;29120;52.006;6.020;2023-04-19T05:16:06;8.90;92.80
43524;DHT22;29120;52.006;6.020;2023-04-19T05:18:31;8.90;92.80
43524;DHT22;29120;52.006;6.020;2023-04-19T05:20:56;8.90;92.80
43524;DHT22;29120;52.006;6.020;2023-04-19T05:23:22;8.90;92.70
43524;DHT22;29120;52.006;6.020;2023-04-19T05:25:47;8.90;92.60
43524;DHT22;29120;52.006;6.020;2023-04-19T05:28:13;8.90;92.60
43524;DHT22;29120;52.006;6.020;2023-04-19T05:30:38;8.90;92.50
43524;DHT22;29120;52.006;6.020;2023-04-19T05:33:04;9.00;92.50
43524;DHT22;29120;52.006;6.020;2023-04-19T05:35:29;8.90;92.30
43524;DHT22;29120;52.006;6.020;2023-04-19T05:37:55;9.00;92.20
43524;DHT22;29120;52.006;6.020;2023-04-19T05:40:20;9.00;92.00
43524;DHT22;29120;52.006;6.020;2023-04-19T05:42:48;9.00;92.00
43524;DHT22;29120;52.006;6.020;2023-04-19T05:45:14;9.00;91.80
43524;DHT22;29120;52.006;6.020;2023-04-19T05:47:40;9.00;91.60
43524;DHT22;29120;52.006;6.020;2023-04-19T05:50:05;9.10;91.70
43524;DHT22;29120;52.006;6.020;2023-04-19T05:52:31;9.10;91.30
43524;DHT22;29120;52.006;6.020;2023-04-19T05:54:56;9.20;91.10
43524;DHT22;29120;52.006;6.020;2023-04-19T05:57:22;9.30;90.60
43524;DHT22;29120;52.006;6.020;2023-04-19T05:59:47;9.40;90.20
43524;DHT22;29120;52.006;6.020;2023-04-19T06:02:13;9.50;90.10
43524;DHT22;29120;52.006;6.020;2023-04-19T06:04:38;9.60;89.50
43524;DHT22;29120;52.006;6.020;2023-04-19T06:07:04;9.70;88.90
43524;DHT22;29120;52.006;6.020;2023-04-19T06:09:29;9.80;88.50
43524;DHT22;29120;52.006;6.020;2023-04-19T06:11:55;10.00;88.30
43524;DHT22;29120;52.006;6.020;2023-04-19T06:14:21;10.10;87.00
43524;DHT22;29120;52.006;6.020;2023-04-19T06:16:46;10.20;86.60
43524;DHT22;29120;52.006;6.020;2023-04-19T06:19:12;10.30;86.50
43524;DHT22;29120;52.006;6.020;2023-04-19T06:21:38;10.30;85.70
43524;DHT22;29120;52.006;6.020;2023-04-19T06:24:04;10.30;85.10
43524;DHT22;29120;52.006;6.020;2023-04-19T06:26:30;10.40;84.20
43524;DHT22;29120;52.006;6.020;2023-04-19T06:28:55;10.40;83.00
43524;DHT22;29120;52.006;6.020;2023-04-19T06:31:21;10.70;82.90
43524;DHT22;29120;52.006;6.020;2023-04-19T06:33:46;11.10;81.40
43524;DHT22;29120;52.006;6.020;2023-04-19T06:36:12;11.50;79.40
43524;DHT22;29120;52.006;6.020;2023-04-19T06:38:37;12.00;76.90
43524;DHT22;29120;52.006;6.020;2023-04-19T06:41:03;12.40;76.00
43524;DHT22;29120;52.006;6.020;2023-04-19T06:43:29;12.60;74.90
43524;DHT22;29120;52.006;6.020;2023-04-19T06:45:58;12.80;74.10
43524;DHT22;29120;52.006;6.020;2023-04-19T06:48:23;13.10;70.00
43524;DHT22;29120;52.006;6.020;2023-04-19T06:50:48;13.30;70.90
43524;DHT22;29120;52.006;6.020;2023-04-19T06:53:14;13.60;68.20
43524;DHT22;29120;52.006;6.020;2023-04-19T06:55:39;13.80;67.30
43524;DHT22;29120;52.006;6.020;2023-04-19T06:58:05;14.10;65.80
43524;DHT22;29120;52.006;6.020;2023-04-19T07:00:35;14.30;64.30
43524;DHT22;29120;52.006;6.020;2023-04-19T07:03:00;14.40;62.10
43524;DHT22;29120;52.006;6.020;2023-04-19T07:05:26;14.60;61.30
43524;DHT22;29120;52.006;6.020;2023-04-19T07:07:51;14.80;62.50
43524;DHT22;29120;52.006;6.020;2023-04-19T07:10:17;15.30;61.60
43524;DHT22;29120;52.006;6.020;2023-04-19T07:12:42;15.50;60.60
43524;DHT22;29120;52.006;6.020;2023-04-19T07:15:08;15.70;59.30
43524;DHT22;29120;52.006;6.020;2023-04-19T07:17:34;15.80;58.80
43524;DHT22;29120;52.006;6.020;2023-04-19T07:20:00;16.00;58.60
43524;DHT22;29120;52.006;6.020;2023-04-19T07:22:25;16.40;58.00
43524;DHT22;29120;52.006;6.020;2023-04-19T07:24:51;16.60;56.60
43524;DHT22;29120;52.006;6.020;2023-04-19T07:27:17;16.70;55.50
43524;DHT22;29120;52.006;6.020;2023-04-19T07:29:42;16.70;55.50
43524;DHT22;29120;52.006;6.020;2023-04-19T07:32:08;16.60;55.10
43524;DHT22;29120;52.006;6.020;2023-04-19T07:34:34;16.50;55.60
43524;DHT22;29120;52.006;6.020;2023-04-19T07:37:00;16.40;54.40
43524;DHT22;29120;52.006;6.020;2023-04-19T07:39:26;16.20;54.40
43524;DHT22;29120;52.006;6.020;2023-04-19T07:41:51;16.00;54.20
43524;DHT22;29120;52.006;6.020;2023-04-19T07:44:17;15.90;54.50
43524;DHT22;29120;52.006;6.020;2023-04-19T07:46:42;15.90;54.70
43524;DHT22;29120;52.006;6.020;2023-04-19T07:49:09;16.00;54.50
43524;DHT22;29120;52.006;6.020;2023-04-19T07:51:34;15.90;54.50
43524;DHT22;29120;52.006;6.020;2023-04-19T07:54:00;15.90;54.60
43524;DHT22;29120;52.006;6.020;2023-04-19T07:56:25;15.90;55.10
43524;DHT22;29120;52.006;6.020;2023-04-19T07:58:51;16.10;54.90
43524;DHT22;29120;52.006;6.020;2023-04-19T08:01:17;16.10;55.00
43524;DHT22;29120;52.006;6.020;2023-04-19T08:03:42;16.20;55.50
43524;DHT22;29120;52.006;6.020;2023-04-19T08:06:07;16.40;54.50
43524;DHT22;29120;52.006;6.020;2023-04-19T08:08:33;16.60;54.20
43524;DHT22;29120;52.006;6.020;2023-04-19T08:10:59;16.60;53.50
43524;DHT22;29120;52.006;6.020;2023-04-19T08:13:26;16.70;53.00
43524;DHT22;29120;52.006;6.020;2023-04-19T08:15:52;16.70;52.30
43524;DHT22;29120;52.006;6.020;2023-04-19T08:18:17;16.80;52.40
43524;DHT22;29120;52.006;6.020;2023-04-19T08:20:44;17.00;51.70
43524;DHT22;29120;52.006;6.020;2023-04-19T08:23:10;17.10;51.10
43524;DHT22;29120;52.006;6.020;2023-04-19T08:25:36;17.10;51.20
43524;DHT22;29120;52.006;6.020;2023-04-19T08:28:02;17.30;52.00
43524;DHT22;29120;52.006;6.020;2023-04-19T08:30:28;17.40;51.50
43524;DHT22;29120;52.006;6.020;2023-04-19T08:32:53;17.70;50.30
43524;DHT22;29120;52.006;6.020;2023-04-19T08:35:19;17.90;51.10
43524;DHT22;29120;52.006;6.020;2023-04-19T08:37:44;18.20;50.50
43524;DHT22;29120;52.006;6.020;2023-04-19T08:40:12;18.40;46.30
43524;DHT22;29120;52.006;6.020;2023-04-19T08:42:38;18.20;46.90
43524;DHT22;29120;52.006;6.020;2023-04-19T08:45:04;18.40;45.80
43524;DHT22;29120;52.006;6.020;2023-04-19T08:47:33;18.60;47.20
43524;DHT22;29120;52.006;6.020;2023-04-19T08:50:00;18.70;46.40
43524;DHT22;29120;52.006;6.020;2023-04-19T08:52:26;18.80;45.70
43524;DHT22;29120;52.006;6.020;2023-04-19T08:54:52;18.90;46.80
43524;DHT22;29120;52.006;6.020;2023-04-19T08:57:18;19.10;46.30
43524;DHT22;29120;52.006;6.020;2023-04-19T08:59:43;19.20;46.10
43524;DHT22;29120;52.006;6.020;2023-04-19T09:02:11;19.20;45.20
43524;DHT22;29120;52.006;6.020;2023-04-19T09:04:37;19.20;45.90
43524;DHT22;29120;52.006;6.020;2023-04-19T09:07:03;19.20;46.40
43524;DHT22;29120;52.006;6.020;2023-04-19T09:09:29;19.30;46.40
43524;DHT22;29120;52.006;6.020;2023-04-19T09:11:55;19.40;46.40
43524;DHT22;29120;52.006;6.020;2023-04-19T09:14:22;19.50;46.20
43524;DHT22;29120;52.006;6.020;2023-04-19T09:16:48;19.60;45.90
43524;DHT22;29120;52.006;6.020;2023-04-19T09:19:15;19.60;45.40
43524;DHT22;29120;52.006;6.020;2023-04-19T09:21:41;19.80;45.80
43524;DHT22;29120;52.006;6.020;2023-04-19T09:24:07;19.70;45.30
43524;DHT22;29120;52.006;6.020;2023-04-19T09:26:32;19.60;45.60
43524;DHT22;29120;52.006;6.020;2023-04-19T09:28:59;19.40;46.20
43524;DHT22;29120;52.006;6.020;2023-04-19T09:31:27;19.10;46.50
43524;DHT22;29120;52.006;6.020;2023-04-19T09:33:52;18.80;47.20
43524;DHT22;29120;52.006;6.020;2023-04-19T09:36:51;18.70;47.70
43524;DHT22;29120;52.006;6.020;2023-04-19T09:39:10;18.50;48.20
43524;DHT22;29120;52.006;6.020;2023-04-19T09:41:51;18.60;48.00
43524;DHT22;29120;52.006;6.020;2023-04-19T09:44:17;18.40;46.90
43524;DHT22;29120;52.006;6.020;2023-04-19T09:46:43;18.40;48.50
43524;DHT22;29120;52.006;6.020;2023-04-19T09:51:52;18.60;48.00
43524;DHT22;29120;52.006;6.020;2023-04-19T09:54:19;18.70;47.50
43524;DHT22;29120;52.006;6.020;2023-04-19T09:56:45;18.70;47.40
43524;DHT22;29120;52.006;6.020;2023-04-19T09:59:11;18.80;47.90
43524;DHT22;29120;52.006;6.020;2023-04-19T10:04:05;19.50;47.10
43524;DHT22;29120;52.006;6.020;2023-04-19T10:06:31;19.80;45.70
43524;DHT22;29120;52.006;6.020;2023-04-19T10:09:02;20.10;45.40
43524;DHT22;29120;52.006;6.020;2023-04-19T10:11:30;20.30;45.00
43524;DHT22;29120;52.006;6.020;2023-04-19T10:13:57;20.80;44.80
43524;DHT22;29120;52.006;6.020;2023-04-19T10:16:24;21.10;43.20
43524;DHT22;29120;52.006;6.020;2023-04-19T10:18:50;21.40;44.10
43524;DHT22;29120;52.006;6.020;2023-04-19T10:21:16;22.00;43.60
43524;DHT22;29120;52.006;6.020;2023-04-19T10:23:43;22.00;43.40
43524;DHT22;29120;52.006;6.020;2023-04-19T10:26:08;22.40;43.90
43524;DHT22;29120;52.006;6.020;2023-04-19T10:28:34;22.70;42.10
43524;DHT22;29120;52.006;6.020;2023-04-19T10:31:00;22.50;40.70
43524;DHT22;29120;52.006;6.020;2023-04-19T10:33:27;22.50;40.60
43524;DHT22;29120;52.006;6.020;2023-04-19T10:35:55;22.50;40.50
43524;DHT22;29120;52.006;6.020;2023-04-19T10:38:34;22.80;40.20
43524;DHT22;29120;52.006;6.020;2023-04-19T10:41:00;23.20;40.30
43524;DHT22;29120;52.006;6.020;2023-04-19T10:45:53;23.30;39.30
43524;DHT22;29120;52.006;6.020;2023-04-19T10:51:03;23.20;38.70
43524;DHT22;29120;52.006;6.020;2023-04-19T10:56:14;23.40;39.10
43524;DHT22;29120;52.006;6.020;2023-04-19T11:01:37;23.80;38.80
43524;DHT22;29120;52.006;6.020;2023-04-19T11:04:13;23.70;36.60
43524;DHT22;29120;52.006;6.020;2023-04-19T11:06:55;23.70;36.30
43524;DHT22;29120;52.006;6.020;2023-04-19T11:09:29;24.10;36.50
43524;DHT22;29120;52.006;6.020;2023-04-19T11:11:59;24.40;36.00
43524;DHT22;29120;52.006;6.020;2023-04-19T11:14:25;24.70;35.80
43524;DHT22;29120;52.006;6.020;2023-04-19T11:16:51;25.10;36.20
43524;DHT22;29120;52.006;6.020;2023-04-19T11:19:17;25.40;34.40
43524;DHT22;29120;52.006;6.020;2023-04-19T11:21:45;25.60;34.10
43524;DHT22;29120;52.006;6.020;2023-04-19T11:24:11;25.80;33.40
43524;DHT22;29120;52.006;6.020;2023-04-19T11:26:37;25.70;33.60
43524;DHT22;29120;52.006;6.020;2023-04-19T11:29:03;25.80;33.10
43524;DHT22;29120;52.006;6.020;2023-04-19T11:31:33;25.40;33.00
43524;DHT22;29120;52.006;6.020;2023-04-19T11:33:59;25.50;33.80
43524;DHT22;29120;52.006;6.020;2023-04-19T11:36:27;25.80;34.00
43524;DHT22;29120;52.006;6.020;2023-04-19T11:38:53;26.20;34.50
43524;DHT22;29120;52.006;6.020;2023-04-19T11:41:18;26.30;33.50
43524;DHT22;29120;52.006;6.020;2023-04-19T11:43:44;26.40;34.30
43524;DHT22;29120;52.006;6.020;2023-04-19T11:46:11;26.50;32.60
43524;DHT22;29120;52.006;6.020;2023-04-19T11:48:37;26.40;32.40
43524;DHT22;29120;52.006;6.020;2023-04-19T11:51:03;26.30;32.70
43524;DHT22;29120;52.006;6.020;2023-04-19T11:53:29;26.20;32.20
43524;DHT22;29120;52.006;6.020;2023-04-19T11:56:05;26.30;32.30
43524;DHT22;29120;52.006;6.020;2023-04-19T12:01:03;26.20;32.40
43524;DHT22;29120;52.006;6.020;2023-04-19T12:03:30;26.00;32.30
43524;DHT22;29120;52.006;6.020;2023-04-19T12:05:56;26.00;32.40
43524;DHT22;29120;52.006;6.020;2023-04-19T12:08:34;26.40;33.10
43524;DHT22;29120;52.006;6.020;2023-04-19T12:11:00;26.70;33.30
43524;DHT22;29120;52.006;6.020;2023-04-19T12:13:27;26.60;32.80
43524;DHT22;29120;52.006;6.020;2023-04-19T12:15:53;26.90;33.00
43524;DHT22;29120;52.006;6.020;2023-04-19T12:18:19;27.00;32.60
43524;DHT22;29120;52.006;6.020;2023-04-19T12:20:45;27.00;32.50
43524;DHT22;29120;52.006;6.020;2023-04-19T12:23:11;26.90;32.40
43524;DHT22;29120;52.006;6.020;2023-04-19T12:25:40;26.80;32.20
43524;DHT22;29120;52.006;6.020;2023-04-19T12:28:06;26.70;33.00
43524;DHT22;29120;52.006;6.020;2023-04-19T12:30:31;26.50;32.50
43524;DHT22;29120;52.006;6.020;2023-04-19T12:32:57;26.30;33.10
43524;DHT22;29120;52.006;6.020;2023-04-19T12:35:24;26.30;33.70
43524;DHT22;29120;52.006;6.020;2023-04-19T12:37:51;26.10;32.40
43524;DHT22;29120;52.006;6.020;2023-04-19T12:40:17;25.90;32.40
43524;DHT22;29120;52.006;6.020;2023-04-19T12:42:42;25.70;33.20
43524;DHT22;29120;52.006;6.020;2023-04-19T12:45:08;25.60;33.00
43524;DHT22;29120;52.006;6.020;2023-04-19T12:47:34;25.60;32.10
43524;DHT22;29120;52.006;6.020;2023-04-19T12:49:59;25.50;32.40
43524;DHT22;29120;52.006;6.020;2023-04-19T12:52:26;25.40;32.90
43524;DHT22;29120;52.006;6.020;2023-04-19T12:54:51;25.40;32.80
43524;DHT22;29120;52.006;6.020;2023-04-19T12:57:17;25.50;33.20
43524;DHT22;29120;52.006;6.020;2023-04-19T12:59:42;25.60;33.70
43524;DHT22;29120;52.006;6.020;2023-04-19T13:02:07;25.70;33.00
43524;DHT22;29120;52.006;6.020;2023-04-19T13:04:33;25.70;33.60
43524;DHT22;29120;52.006;6.020;2023-04-19T13:06:58;25.90;33.50
43524;DHT22;29120;52.006;6.020;2023-04-19T13:09:26;25.80;32.40
43524;DHT22;29120;52.006;6.020;2023-04-19T13:11:52;25.60;32.50
43524;DHT22;29120;52.006;6.020;2023-04-19T13:14:18;25.50;32.70
43524;DHT22;29120;52.006;6.020;2023-04-19T13:16:44;25.30;32.70
43524;DHT22;29120;52.006;6.020;2023-04-19T13:19:09;25.30;31.90
43524;DHT22;29120;52.006;6.020;2023-04-19T13:21:35;25.20;32.50
43524;DHT22;29120;52.006;6.020;2023-04-19T13:24:00;25.20;32.70
43524;DHT22;29120;52.006;6.020;2023-04-19T13:26:26;25.30;33.10
43524;DHT22;29120;52.006;6.020;2023-04-19T13:28:51;25.20;32.40
43524;DHT22;29120;52.006;6.020;2023-04-19T13:31:17;25.20;32.10
43524;DHT22;29120;52.006;6.020;2023-04-19T13:33:42;25.10;33.10
43524;DHT22;29120;52.006;6.020;2023-04-19T13:36:08;25.10;31.90
43524;DHT22;29120;52.006;6.020;2023-04-19T13:38:33;24.80;32.20
43524;DHT22;29120;52.006;6.020;2023-04-19T13:40:59;24.50;32.40
43524;DHT22;29120;52.006;6.020;2023-04-19T13:43:25;24.50;33.10
43524;DHT22;29120;52.006;6.020;2023-04-19T13:45:50;24.60;32.70
43524;DHT22;29120;52.006;6.020;2023-04-19T13:48:15;24.70;33.20
43524;DHT22;29120;52.006;6.020;2023-04-19T13:50:41;24.80;33.50
43524;DHT22;29120;52.006;6.020;2023-04-19T13:53:07;24.70;32.90
43524;DHT22;29120;52.006;6.020;2023-04-19T13:55:32;24.50;33.80
43524;DHT22;29120;52.006;6.020;2023-04-19T13:57:58;24.40;33.40
43524;DHT22;29120;52.006;6.020;2023-04-19T14:00:23;24.10;32.70
43524;DHT22;29120;52.006;6.020;2023-04-19T14:02:49;23.70;33.30
43524;DHT22;29120;52.006;6.020;2023-04-19T14:05:15;23.50;33.60
43524;DHT22;29120;52.006;6.020;2023-04-19T14:07:40;23.50;34.30
43524;DHT22;29120;52.006;6.020;2023-04-19T14:10:07;23.70;34.70
43524;DHT22;29120;52.006;6.020;2023-04-19T14:12:33;24.00;35.30
43524;DHT22;29120;52.006;6.020;2023-04-19T14:14:58;23.90;34.60
43524;DHT22;29120;52.006;6.020;2023-04-19T14:17:24;23.80;35.00
43524;DHT22;29120;52.006;6.020;2023-04-19T14:19:50;23.70;34.30
43524;DHT22;29120;52.006;6.020;2023-04-19T14:22:15;23.40;34.20
43524;DHT22;29120;52.006;6.020;2023-04-19T14:24:41;23.30;35.20
43524;DHT22;29120;52.006;6.020;2023-04-19T14:27:06;23.20;35.60
43524;DHT22;29120;52.006;6.020;2023-04-19T14:29:32;23.10;35.70
43524;DHT22;29120;52.006;6.020;2023-04-19T14:31:58;23.10;36.20
43524;DHT22;29120;52.006;6.020;2023-04-19T14:34:24;23.10;36.40
43524;DHT22;29120;52.006;6.020;2023-04-19T14:36:49;23.00;35.70
43524;DHT22;29120;52.006;6.020;2023-04-19T14:39:15;22.80;36.00
43524;DHT22;29120;52.006;6.020;2023-04-19T14:41:40;22.60;36.10
43524;DHT22;29120;52.006;6.020;2023-04-19T14:44:06;22.40;36.60
43524;DHT22;29120;52.006;6.020;2023-04-19T14:46:31;22.30;36.60
43524;DHT22;29120;52.006;6.020;2023-04-19T14:48:57;22.20;36.90
43524;DHT22;29120;52.006;6.020;2023-04-19T14:51:28;22.10;36.70
43524;DHT22;29120;52.006;6.020;2023-04-19T14:53:53;22.00;36.70
43524;DHT22;29120;52.006;6.020;2023-04-19T14:56:19;21.80;36.60
43524;DHT22;29120;52.006;6.020;2023-04-19T14:58:44;21.80;37.20
43524;DHT22;29120;52.006;6.020;2023-04-19T15:01:10;21.60;36.50
43524;DHT22;29120;52.006;6.020;2023-04-19T15:03:36;21.30;37.20
43524;DHT22;29120;52.006;6.020;2023-04-19T15:06:01;21.20;37.60
43524;DHT22;29120;52.006;6.020;2023-04-19T15:08:27;21.00;37.70
43524;DHT22;29120;52.006;6.020;2023-04-19T15:10:53;20.70;38.20
43524;DHT22;29120;52.006;6.020;2023-04-19T15:13:18;20.40;38.40
43524;DHT22;29120;52.006;6.020;2023-04-19T15:15:44;20.10;38.20
43524;DHT22;29120;52.006;6.020;2023-04-19T15:18:09;19.80;38.60
43524;DHT22;29120;52.006;6.020;2023-04-19T15:20:35;19.50;38.90
43524;DHT22;29120;52.006;6.020;2023-04-19T15:23:00;19.20;39.80
43524;DHT22;29120;52.006;6.020;2023-04-19T15:25:26;19.00;40.20
43524;DHT22;29120;52.006;6.020;2023-04-19T15:27:51;18.80;39.60
43524;DHT22;29120;52.006;6.020;2023-04-19T15:30:16;18.60;39.90
43524;DHT22;29120;52.006;6.020;2023-04-19T15:32:42;18.40;40.20
43524;DHT22;29120;52.006;6.020;2023-04-19T15:35:07;18.20;40.60
43524;DHT22;29120;52.006;6.020;2023-04-19T15:37:33;18.10;41.10
43524;DHT22;29120;52.006;6.020;2023-04-19T15:39:58;18.10;41.30
43524;DHT22;29120;52.006;6.020;2023-04-19T15:42:24;17.80;41.20